M I D A S
Marine Information and Data Acquisition System
Tripno 1899 of the Zeeleeuw from 2010-06-11 06:57:26 to 2010-06-11 10:32:55
Back to CruiseResearch ActivitiesStationsMapUnderway DataData graphs

EquipmentUnitsComment
TimeDGPSUTC
LatitudeDGPSDM.mWGS84
LongitudeDGPSDM.mWGS84
HeadingGyrodeg 
SOGDGPSknotsSpeed over ground
COGDGPSdegCourse over ground
DepthEcho soundermeters200 kHz
Missing or incorrect values are displayed as -999
Navigation data collected by the RV Zeeleeuw from 2010-06-11 06:54:28 to 2010-06-11 11:08:51
Time Latitude Longitude Heading SOG COG Depth
2010-06-11 06:55:37 51°13.683 2°55.865 100.2 4.8 283 -999
2010-06-11 06:56:35 51°13.688 2°55.771 80.6 2.6 267 12.3
2010-06-11 06:57:33 51°13.688 2°55.748 44.9 0.3 318 11.4
2010-06-11 06:58:33 51°13.71 2°55.744 352.5 2.6 341 12.7
2010-06-11 06:59:33 51°13.776 2°55.675 326.9 6.7 326 11
2010-06-11 07:00:33 51°13.89 2°55.58 336.6 8.3 335 10.1
2010-06-11 07:01:33 51°14.02 2°55.487 337.2 8.7 336 10.3
2010-06-11 07:02:33 51°14.158 2°55.385 336.5 9.3 333 10.4
2010-06-11 07:03:33 51°14.293 2°55.263 330.8 9.4 329 10.2
2010-06-11 07:04:33 51°14.429 2°55.132 329.8 10.1 327 10.4
2010-06-11 07:05:32 51°14.574 2°54.962 318 12 309 11.6
2010-06-11 07:06:32 51°14.654 2°54.664 282.7 12.7 274 11.3
2010-06-11 07:07:32 51°14.554 2°54.36 228.7 13.9 227 9.2
2010-06-11 07:08:33 51°14.402 2°54.069 232.7 14.1 234 8.7
2010-06-11 07:09:32 51°14.267 2°53.771 236.3 14.2 229 8.7
2010-06-11 07:10:32 51°14.128 2°53.462 235.2 14.4 237 8.9
2010-06-11 07:11:32 51°13.989 2°53.15 235 14.4 234 9
2010-06-11 07:12:32 51°13.85 2°52.84 234.8 14.5 235 9.4
2010-06-11 07:13:33 51°13.707 2°52.525 235.2 14.5 234 9.6
2010-06-11 07:14:32 51°13.569 2°52.22 234.5 14.4 237 9.6
2010-06-11 07:15:32 51°13.432 2°51.92 234.7 12.9 234 9.8
2010-06-11 07:16:32 51°13.32 2°51.68 235.8 10.3 231 9.8
2010-06-11 07:17:32 51°13.224 2°51.469 234.5 8.7 234 9.5
2010-06-11 07:18:32 51°13.181 2°51.32 271.2 4.8 266 9.7
2010-06-11 07:19:32 51°13.208 2°51.227 342.2 3.8 329 10.1
2010-06-11 07:20:32 51°13.262 2°51.259 53.5 5 48 10.3
2010-06-11 07:21:32 51°13.341 2°51.393 56.7 7.2 55 10.2
2010-06-11 07:22:32 51°13.401 2°51.476 21.7 3.4 5 10.5
2010-06-11 07:23:32 51°13.429 2°51.462 347.7 0.8 246 10.5
2010-06-11 07:24:33 51°13.423 2°51.447 339.1 0.6 223 10.8
2010-06-11 07:25:32 51°13.416 2°51.436 337.4 0.6 221 10.6
2010-06-11 07:26:32 51°13.408 2°51.427 344.1 0.6 211 10.5
2010-06-11 07:27:32 51°13.398 2°51.419 350.7 0.6 201 10.5
2010-06-11 07:28:32 51°13.388 2°51.412 356.2 0.8 206 10.6
2010-06-11 07:29:32 51°13.377 2°51.404 358.7 0.7 209 10.7
2010-06-11 07:30:32 51°13.369 2°51.395 356.2 0.5 210 10.7
2010-06-11 07:31:32 51°13.362 2°51.387 352.1 0.4 232 10.5
2010-06-11 07:32:32 51°13.373 2°51.357 315.1 2.3 292 10.5
2010-06-11 07:33:32 51°13.372 2°51.277 262 3.6 251 10.8
2010-06-11 07:34:32 51°13.328 2°51.212 196.6 3.5 199 10.5
2010-06-11 07:35:33 51°13.266 2°51.207 169.6 3.8 178 10.7
2010-06-11 07:36:32 51°13.206 2°51.205 173.4 3.6 183 10.4
2010-06-11 07:37:32 51°13.148 2°51.201 174.8 3.5 183 10.1
2010-06-11 07:38:32 51°13.091 2°51.194 177.6 3.5 185 9.8
2010-06-11 07:39:32 51°13.028 2°51.177 189.9 4.1 196 9.6
2010-06-11 07:40:32 51°12.967 2°51.131 210.6 4.1 213 9.4
2010-06-11 07:41:32 51°12.913 2°51.063 222.2 4.1 224 9.6
2010-06-11 07:42:32 51°12.87 2°50.983 237.5 3.9 232 9.5
2010-06-11 07:43:32 51°12.834 2°50.897 237 3.9 234 9.6
2010-06-11 07:44:32 51°12.797 2°50.812 236.4 3.8 236 9.4
2010-06-11 07:45:32 51°12.763 2°50.735 236.9 3.5 230 9.5
2010-06-11 07:46:32 51°12.731 2°50.663 237.2 3.3 234 9.3
2010-06-11 07:47:32 51°12.699 2°50.586 243.2 3.5 239 9.5
2010-06-11 07:48:32 51°12.67 2°50.502 244.6 3.6 241 9.1
2010-06-11 07:49:32 51°12.641 2°50.42 243.7 3.6 237 9.6
2010-06-11 07:50:32 51°12.612 2°50.341 244 3.4 239 9.6
2010-06-11 07:51:33 51°12.583 2°50.262 243.6 3.4 238 9.7
2010-06-11 07:52:32 51°12.554 2°50.185 242.6 3.4 238 9.6
2010-06-11 07:53:33 51°12.524 2°50.106 242.1 3.5 238 9.4
2010-06-11 07:54:32 51°12.494 2°50.027 241.9 3.5 240 9.4
2010-06-11 07:55:33 51°12.464 2°49.943 244.2 3.6 247 9.2
2010-06-11 07:56:32 51°12.435 2°49.863 244 3.5 241 9.5
2010-06-11 07:57:33 51°12.405 2°49.778 243.8 3.7 240 9.1
2010-06-11 07:58:32 51°12.375 2°49.694 242.7 3.8 236 9.7
2010-06-11 07:59:32 51°12.342 2°49.611 241.5 3.6 235 9.3
2010-06-11 08:00:33 51°12.311 2°49.527 243.7 3.5 236 9.5
2010-06-11 08:01:32 51°12.28 2°49.448 242.2 3.6 239 9.2
2010-06-11 08:02:33 51°12.251 2°49.365 250.4 3.5 243 9.4
2010-06-11 08:03:32 51°12.236 2°49.279 268.2 3.3 263 9.4
2010-06-11 08:04:33 51°12.237 2°49.194 283.5 3.2 277 9.6
2010-06-11 08:05:32 51°12.245 2°49.112 285.3 3.1 279 9.5
2010-06-11 08:06:32 51°12.252 2°49.032 283.3 3 275 9.7
2010-06-11 08:07:32 51°12.256 2°48.952 281.3 3 275 9.9
2010-06-11 08:08:32 51°12.259 2°48.87 278.8 3.2 272 10.5
2010-06-11 08:09:32 51°12.262 2°48.784 278.8 3.2 272 10.3
2010-06-11 08:10:32 51°12.266 2°48.7 282.3 3 277 11
2010-06-11 08:11:32 51°12.272 2°48.622 280.7 2.8 276 11.1
2010-06-11 08:12:32 51°12.277 2°48.545 278.6 3 275 11.4
2010-06-11 08:13:33 51°12.284 2°48.465 283 3.1 280 11.8
2010-06-11 08:14:32 51°12.292 2°48.388 281.2 3 278 12.1
2010-06-11 08:15:32 51°12.298 2°48.309 274.4 3.1 270 12.4
2010-06-11 08:16:32 51°12.294 2°48.229 263.6 3.1 261 12.5
2010-06-11 08:17:32 51°12.284 2°48.15 259.8 3 256 12.8
2010-06-11 08:18:33 51°12.273 2°48.071 256 3 251 13.1
2010-06-11 08:19:32 51°12.249 2°48.002 230.4 2.9 231 12.9
2010-06-11 08:20:33 51°12.208 2°47.956 205.6 3.1 206 12.7
2010-06-11 08:21:32 51°12.158 2°47.935 190.4 3.3 191 12.5
2010-06-11 08:22:32 51°12.103 2°47.926 184.3 3.4 186 11.8
2010-06-11 08:23:32 51°12.048 2°47.912 193.2 3.3 193 11.7
2010-06-11 08:24:32 51°11.996 2°47.891 196.8 3.2 195 11.3
2010-06-11 08:25:32 51°11.947 2°47.863 202.7 3.1 203 10.7
2010-06-11 08:26:32 51°11.901 2°47.829 211.9 3 209 10.7
2010-06-11 08:27:32 51°11.86 2°47.78 225.8 3.2 224 10.1
2010-06-11 08:28:32 51°11.826 2°47.716 245.4 2.8 238 10.3
2010-06-11 08:29:33 51°11.809 2°47.66 259.9 2 249 10.3
2010-06-11 08:30:32 51°11.804 2°47.626 281.9 1.6 276 10.4
2010-06-11 08:31:32 51°11.836 2°47.481 290.5 8.5 287 10.8
2010-06-11 08:32:32 51°11.862 2°47.255 278.2 6.9 275 11.6
2010-06-11 08:33:32 51°11.848 2°47.131 251.3 3.6 247 12.2
2010-06-11 08:34:33 51°11.826 2°47.068 241 2 232 12.1
2010-06-11 08:35:32 51°11.805 2°47.039 235.2 1.7 220 12.1
2010-06-11 08:36:33 51°11.787 2°47.008 247.3 1.6 230 12.2
2010-06-11 08:37:32 51°11.772 2°46.971 252.8 1.7 240 12
2010-06-11 08:38:33 51°11.754 2°46.916 252.4 3.3 247 12.1
2010-06-11 08:39:32 51°11.729 2°46.781 259.3 7.6 259 12.2
2010-06-11 08:40:32 51°11.704 2°46.512 266.5 12.1 264 12.6
2010-06-11 08:41:32 51°11.688 2°46.181 266.6 12.6 267 12.9
2010-06-11 08:42:32 51°11.672 2°45.847 267.7 12.6 265 13.4
2010-06-11 08:43:33 51°11.654 2°45.507 266.8 12.6 265 13.9
2010-06-11 08:44:32 51°11.636 2°45.18 266.5 12.6 265 13.6
2010-06-11 08:45:33 51°11.619 2°44.844 267.2 12.4 265 13.4
2010-06-11 08:46:32 51°11.601 2°44.521 266.9 12.4 265 13.6
2010-06-11 08:47:32 51°11.583 2°44.195 265.7 12.3 264 13.5
2010-06-11 08:48:32 51°11.564 2°43.873 265.7 12.2 265 13.1
2010-06-11 08:49:32 51°11.545 2°43.553 266.8 12 265 12.5
2010-06-11 08:50:32 51°11.524 2°43.235 266.3 12.1 264 12.1
2010-06-11 08:51:32 51°11.504 2°42.916 266.1 12.1 263 12.2
2010-06-11 08:52:32 51°11.483 2°42.613 266.4 10.6 264 12.2
2010-06-11 08:53:32 51°11.466 2°42.39 266.3 6.5 262 12.5
2010-06-11 08:54:33 51°11.442 2°42.252 249.6 4.7 239 12.4
2010-06-11 08:55:32 51°11.398 2°42.159 240.8 4.3 231 12.8
2010-06-11 08:56:33 51°11.357 2°42.08 242.8 3.3 226 13
2010-06-11 08:57:32 51°11.324 2°42.024 243.2 2.8 226 13.2
2010-06-11 08:58:32 51°11.295 2°41.975 244 2.4 225 13.2
2010-06-11 08:59:32 51°11.267 2°41.934 243.6 2.2 223 13.3
2010-06-11 09:00:32 51°11.239 2°41.895 243.9 2.1 226 13.4
2010-06-11 09:01:32 51°11.212 2°41.859 244.5 2.1 225 13.4
2010-06-11 09:02:32 51°11.187 2°41.821 245.8 2.1 222 13.4
2010-06-11 09:03:32 51°11.162 2°41.785 245.6 2 222 13.2
2010-06-11 09:04:32 51°11.136 2°41.75 246.3 2 219 13.6
2010-06-11 09:05:32 51°11.111 2°41.716 245.1 2 218 14
2010-06-11 09:06:32 51°11.085 2°41.682 244.3 2 219 13.6
2010-06-11 09:07:32 51°11.06 2°41.646 245.8 2.1 218 13.6
2010-06-11 09:08:32 51°11.036 2°41.611 247.5 2 226 13.6
2010-06-11 09:09:32 51°11.012 2°41.576 245.7 2 222 13.6
2010-06-11 09:10:32 51°10.988 2°41.542 244.2 1.9 222 13.6
2010-06-11 09:11:32 51°10.966 2°41.509 247.6 1.8 225 14.2
2010-06-11 09:12:33 51°10.945 2°41.477 245.9 1.8 221 14.2
2010-06-11 09:13:32 51°10.924 2°41.446 245.7 1.8 220 14.2
2010-06-11 09:14:33 51°10.903 2°41.412 246.4 1.9 219 14.4
2010-06-11 09:15:32 51°10.881 2°41.38 245.1 1.9 221 14.7
2010-06-11 09:16:32 51°10.859 2°41.347 243.4 1.8 217 14.4
2010-06-11 09:17:32 51°10.836 2°41.316 244.7 1.8 221 14.4
2010-06-11 09:18:32 51°10.815 2°41.285 245.4 1.7 227 14.2
2010-06-11 09:19:32 51°10.793 2°41.255 245.1 1.7 215 14.8
2010-06-11 09:20:32 51°10.775 2°41.221 254 1.7 239 14.2
2010-06-11 09:21:32 51°10.765 2°41.179 265.4 1.8 257 14.5
2010-06-11 09:22:32 51°10.764 2°41.134 277.1 1.8 277 14.7
2010-06-11 09:23:32 51°10.77 2°41.088 280.6 1.9 287 14.4
2010-06-11 09:24:32 51°10.778 2°41.039 278.6 1.9 282 14.5
2010-06-11 09:25:32 51°10.785 2°40.99 279.1 1.9 283 14.8
2010-06-11 09:26:32 51°10.793 2°40.94 279.5 1.9 282 14.8
2010-06-11 09:27:32 51°10.801 2°40.893 279.8 1.8 283 14.9
2010-06-11 09:28:32 51°10.808 2°40.847 278.7 1.7 280 14.7
2010-06-11 09:29:32 51°10.817 2°40.803 279.6 1.8 287 14.9
2010-06-11 09:30:33 51°10.823 2°40.756 277.5 1.8 274 14.9
2010-06-11 09:31:32 51°10.827 2°40.709 279.4 1.9 270 15.8
2010-06-11 09:32:32 51°10.833 2°40.662 281.6 1.9 282 15.5
2010-06-11 09:33:32 51°10.841 2°40.613 283.3 1.8 288 15.3
2010-06-11 09:34:32 51°10.847 2°40.564 272.5 1.8 269 15.3
2010-06-11 09:35:32 51°10.835 2°40.516 251.4 2.1 231 15.7
2010-06-11 09:36:32 51°10.813 2°40.47 248.9 2.2 233 16
2010-06-11 09:37:32 51°10.791 2°40.423 250.3 2.2 236 16
2010-06-11 09:38:32 51°10.77 2°40.374 250.3 2.2 239 15.5
2010-06-11 09:39:32 51°10.749 2°40.324 249.9 2.3 238 16.2
2010-06-11 09:40:32 51°10.727 2°40.276 248.3 2.1 231 16
2010-06-11 09:41:32 51°10.705 2°40.232 249.8 2.2 228 16.4
2010-06-11 09:42:32 51°10.685 2°40.188 250.7 2.1 237 16.4
2010-06-11 09:43:32 51°10.668 2°40.143 250.4 1.9 233 16.6
2010-06-11 09:44:32 51°10.65 2°40.102 250.8 1.9 238 16.5
2010-06-11 09:45:32 51°10.634 2°40.061 250.5 1.8 231 16.4
2010-06-11 09:46:32 51°10.617 2°40.021 250.7 1.8 239 16.5
2010-06-11 09:47:32 51°10.601 2°39.98 251 1.8 237 15.9
2010-06-11 09:48:32 51°10.583 2°39.939 250.5 1.8 234 16.6
2010-06-11 09:49:32 51°10.564 2°39.898 249.4 2.2 236 16.6
2010-06-11 09:50:32 51°10.491 2°39.876 174.2 7 155 16.8
2010-06-11 09:51:32 51°10.439 2°40.086 100.6 11 97 16
2010-06-11 09:52:32 51°10.407 2°40.429 104.5 14.4 98 15.5
2010-06-11 09:53:32 51°10.351 2°40.791 109.7 14.3 104 14.4
2010-06-11 09:54:32 51°10.279 2°41.151 113.5 14.5 105 13
2010-06-11 09:55:32 51°10.211 2°41.516 105.4 14.2 100 12.1
2010-06-11 09:56:32 51°10.149 2°41.886 107 14.2 107 11.4
2010-06-11 09:57:32 51°10.137 2°42.257 87.2 13 83 11
2010-06-11 09:58:32 51°10.167 2°42.529 80.4 9 80 11.2
2010-06-11 09:59:32 51°10.193 2°42.736 77.2 6.6 75 11.6
2010-06-11 10:00:32 51°10.203 2°42.816 42.1 1.4 119 11.5
2010-06-11 10:01:35 51°10.194 2°42.846 60.7 1.2 108 -999
2010-06-11 10:02:34 51°10.19 2°42.879 74.7 1.5 102 12
2010-06-11 10:03:32 51°10.19 2°42.92 76.1 1.9 94 11.7
2010-06-11 10:04:32 51°10.191 2°42.97 68.5 1.9 86 11.4
2010-06-11 10:05:32 51°10.195 2°43.021 59.4 1.9 83 11.7
2010-06-11 10:06:32 51°10.199 2°43.074 48.1 2 84 11.7
2010-06-11 10:07:32 51°10.203 2°43.127 39.9 2 86 11.7
2010-06-11 10:08:32 51°10.205 2°43.178 40.5 1.9 86 12.3
2010-06-11 10:09:32 51°10.206 2°43.23 43.9 1.8 86 11.9
2010-06-11 10:10:32 51°10.208 2°43.282 44.2 1.9 86 12.1
2010-06-11 10:11:32 51°10.21 2°43.335 48.7 2.3 83 12.3
2010-06-11 10:12:32 51°10.229 2°43.41 41 4.2 59 12.3
2010-06-11 10:13:32 51°10.289 2°43.522 38.1 7.3 47 11.7
2010-06-11 10:14:32 51°10.397 2°43.697 40.1 10.6 46 11.9
2010-06-11 10:15:33 51°10.524 2°43.909 46.2 11 50 11.1
2010-06-11 10:16:32 51°10.633 2°44.143 52.3 11.3 54 11.4
2010-06-11 10:17:32 51°10.742 2°44.385 51.9 11.1 55 11.4
2010-06-11 10:18:32 51°10.854 2°44.626 52.2 11.3 54 11.5
2010-06-11 10:19:32 51°10.965 2°44.866 51.2 11.4 53 12.1
2010-06-11 10:20:32 51°11.079 2°45.107 52.1 11.4 52 12.5
2010-06-11 10:21:32 51°11.192 2°45.35 50.9 11.3 52 12.8
2010-06-11 10:22:32 51°11.299 2°45.601 55.3 11.4 57 13.3
2010-06-11 10:23:32 51°11.402 2°45.857 55.6 11.4 57 13.6
2010-06-11 10:24:32 51°11.5 2°46.116 62 11.6 63 14
2010-06-11 10:25:32 51°11.588 2°46.386 60.3 11.5 60 14.4
2010-06-11 10:26:32 51°11.683 2°46.651 59 11.5 61 14.2
2010-06-11 10:27:32 51°11.778 2°46.915 58.7 11.5 59 14.4
2010-06-11 10:28:32 51°11.874 2°47.18 58.9 11.6 60 14.4
2010-06-11 10:29:32 51°11.97 2°47.445 59.5 11.5 58 14.7
2010-06-11 10:30:32 51°12.067 2°47.71 59.6 11.6 59 14.4
2010-06-11 10:31:32 51°12.164 2°47.975 59.7 11.6 59 14.9
2010-06-11 10:32:32 51°12.261 2°48.24 59.5 11.5 60 14.7
2010-06-11 10:33:32 51°12.359 2°48.505 59.4 11.6 58 14.9
2010-06-11 10:34:32 51°12.457 2°48.771 59 11.7 61 15.1
2010-06-11 10:35:32 51°12.556 2°49.036 58.9 11.6 59 14.7
2010-06-11 10:36:32 51°12.655 2°49.302 58.7 11.7 60 15.1
2010-06-11 10:37:32 51°12.755 2°49.569 58.3 11.7 59 14.7
2010-06-11 10:38:32 51°12.855 2°49.837 59 11.7 61 14.3
2010-06-11 10:39:32 51°12.955 2°50.106 59.1 11.9 59 14.4
2010-06-11 10:40:32 51°13.057 2°50.376 58.6 11.9 56 14.2
2010-06-11 10:41:32 51°13.158 2°50.647 60 11.9 57 14.3
2010-06-11 10:42:32 51°13.26 2°50.918 58.9 11.9 60 14
2010-06-11 10:43:32 51°13.364 2°51.188 59.9 11.8 59 13.8
2010-06-11 10:44:32 51°13.467 2°51.458 59.4 12 60 14.2
2010-06-11 10:45:32 51°13.57 2°51.729 60.5 11.9 59 13.8
2010-06-11 10:46:32 51°13.673 2°51.998 58.9 11.9 57 13.8
2010-06-11 10:47:32 51°13.776 2°52.268 59.4 11.9 58 13.7
2010-06-11 10:48:32 51°13.881 2°52.536 58.8 11.9 58 13.6
2010-06-11 10:49:32 51°13.985 2°52.807 59.8 11.8 60 13.3
2010-06-11 10:50:32 51°14.089 2°53.076 58.7 12 59 13.2
2010-06-11 10:51:32 51°14.195 2°53.346 60.1 12 57 12.9
2010-06-11 10:52:32 51°14.301 2°53.617 58.2 12.1 58 12.9
2010-06-11 10:53:32 51°14.407 2°53.884 58.6 11.9 59 12.4
2010-06-11 10:54:32 51°14.515 2°54.149 54.8 11.9 54 12.7
2010-06-11 10:55:32 51°14.621 2°54.416 64 12 62 12.9
2010-06-11 10:56:32 51°14.659 2°54.712 108.1 11.1 101 14.7
2010-06-11 10:57:32 51°14.574 2°54.97 139.9 11.4 133 14.7
2010-06-11 10:58:32 51°14.422 2°55.147 150.4 11.5 151 13.8
2010-06-11 10:59:32 51°14.257 2°55.295 154.6 10.1 155 13.7
2010-06-11 11:00:32 51°14.122 2°55.408 155.2 9 155 13.8
2010-06-11 11:01:32 51°13.989 2°55.503 156.1 8.1 155 13.1
2010-06-11 11:02:32 51°13.878 2°55.585 156.3 7.2 156 13.1
2010-06-11 11:03:32 51°13.774 2°55.679 143.1 7 141 14.6
2010-06-11 11:04:32 51°13.71 2°55.795 124.3 4.9 122 14.4
2010-06-11 11:05:32 51°13.681 2°55.895 112.3 3.9 111 11.4
2010-06-11 11:06:32 51°13.664 2°55.952 130.5 0.4 143 9
2010-06-11 11:07:36 51°13.661 2°55.96 120.6 0.3 74 9
2010-06-11 11:08:36 51°13.662 2°55.96 128.7 0.1 63 -999